createdAt,value
2018-02-24T00:01:40.058Z,19.43
2018-02-24T00:04:08.514Z,19.70
2018-02-24T00:06:37.093Z,19.50
2018-02-24T00:09:04.891Z,20.07
2018-02-24T00:11:34.072Z,18.67
2018-02-24T00:14:02.518Z,19.70
2018-02-24T00:16:31.723Z,19.40
2018-02-24T00:19:00.202Z,19.30
2018-02-24T00:21:28.663Z,18.33
2018-02-24T00:23:57.127Z,18.40
2018-02-24T00:26:25.572Z,18.73
2018-02-24T00:28:54.788Z,18.50
2018-02-24T00:31:23.274Z,18.33
2018-02-24T00:33:51.732Z,19.10
2018-02-24T00:36:20.158Z,14.67
2018-02-24T00:38:48.602Z,19.80
2018-02-24T00:41:17.068Z,17.77
2018-02-24T00:43:45.372Z,18.37
2018-02-24T00:46:13.815Z,18.10
2018-02-24T00:48:42.242Z,18.97
2018-02-24T00:51:11.312Z,18.80
2018-02-24T00:53:39.566Z,18.30
2018-02-24T00:56:09.359Z,19.30
2018-02-24T00:58:37.683Z,18.33
2018-02-24T01:01:07.994Z,18.97
2018-02-24T01:03:40.447Z,18.10
2018-02-24T01:06:09.703Z,17.63
2018-02-24T01:08:39.765Z,16.97
2018-02-24T01:11:09.018Z,19.07
2018-02-24T01:13:37.440Z,17.83
2018-02-24T01:16:07.138Z,17.53
2018-02-24T01:18:35.594Z,18.47
2018-02-24T01:21:04.593Z,18.63
2018-02-24T01:23:33.620Z,14.80
2018-02-24T01:26:02.159Z,17.63
2018-02-24T01:28:30.635Z,17.07
2018-02-24T01:30:59.900Z,17.40
2018-02-24T01:33:28.341Z,15.60
2018-02-24T01:35:56.771Z,18.17
2018-02-24T01:38:25.984Z,18.47
2018-02-24T01:40:54.411Z,17.27
2018-02-24T01:43:23.633Z,18.20
2018-02-24T01:45:52.071Z,18.67
2018-02-24T01:48:20.513Z,19.37
2018-02-24T01:50:49.727Z,18.27
2018-02-24T01:53:18.175Z,19.33
2018-02-24T01:55:46.640Z,18.07
2018-02-24T01:58:15.115Z,16.87
2018-02-24T02:00:43.576Z,20.60
2018-02-24T02:03:12.034Z,18.67
2018-02-24T02:05:40.470Z,18.60
2018-02-24T02:08:09.167Z,17.87
2018-02-24T02:10:37.886Z,17.77
2018-02-24T02:13:06.011Z,19.23
2018-02-24T02:15:35.198Z,19.55
2018-02-24T02:18:03.609Z,19.10
2018-02-24T02:20:32.021Z,18.67
2018-02-24T02:23:00.442Z,19.97
2018-02-24T02:25:28.908Z,19.13
2018-02-24T02:27:57.348Z,20.20
2018-02-24T02:30:25.767Z,19.13
2018-02-24T02:32:54.228Z,17.57
2018-02-24T02:35:22.318Z,18.27
2018-02-24T02:37:50.438Z,20.40
2018-02-24T02:40:19.087Z,20.30
2018-02-24T02:42:47.561Z,20.07
2018-02-24T02:45:15.982Z,19.57
2018-02-24T02:47:45.222Z,20.83
2018-02-24T02:50:13.656Z,20.43
2018-02-24T02:52:42.130Z,21.03
2018-02-24T02:55:10.567Z,22.20
2018-02-24T02:57:39.736Z,21.50
2018-02-24T03:00:09.110Z,21.23
2018-02-24T03:02:38.886Z,22.33
2018-02-24T03:05:07.596Z,21.10
2018-02-24T03:07:36.958Z,20.88
2018-02-24T03:10:05.811Z,21.80
2018-02-24T03:12:34.232Z,20.77
2018-02-24T03:15:05.910Z,21.37
2018-02-24T03:17:34.372Z,20.53
2018-02-24T03:20:02.860Z,20.50
2018-02-24T03:22:31.342Z,21.93
2018-02-24T03:24:59.781Z,21.57
2018-02-24T03:27:29.249Z,20.83
2018-02-24T03:29:57.380Z,20.97
2018-02-24T03:32:25.874Z,21.90
2018-02-24T03:34:54.333Z,22.53
2018-02-24T03:37:22.837Z,21.80
2018-02-24T03:39:51.351Z,21.30
2018-02-24T03:42:20.065Z,22.67
2018-02-24T03:44:48.570Z,19.75
2018-02-24T03:47:17.047Z,21.20
2018-02-24T03:49:45.308Z,23.30
2018-02-24T03:52:13.849Z,22.17
2018-02-24T03:54:42.085Z,22.07
2018-02-24T03:57:10.790Z,21.92
2018-02-24T03:59:41.731Z,22.97
2018-02-24T04:02:10.446Z,20.67
2018-02-24T04:04:39.724Z,19.83
2018-02-24T04:07:08.790Z,17.67
2018-02-24T04:09:37.466Z,22.00
2018-02-24T04:12:07.828Z,17.67
2018-02-24T04:14:36.568Z,17.30
2018-02-24T04:17:04.788Z,19.50
2018-02-24T04:19:33.759Z,19.00
2018-02-24T04:22:02.434Z,19.58
2018-02-24T04:24:31.095Z,21.75
2018-02-24T04:26:59.774Z,21.77
2018-02-24T04:29:28.445Z,17.90
2018-02-24T04:31:57.879Z,23.23
2018-02-24T04:34:26.607Z,23.08
2018-02-24T04:36:55.297Z,21.35
2018-02-24T04:39:24.076Z,23.48
2018-02-24T04:41:52.749Z,23.27
2018-02-24T04:44:21.419Z,20.77
2018-02-24T04:46:50.084Z,23.67
2018-02-24T04:49:18.746Z,21.23
2018-02-24T04:51:48.186Z,16.65
2018-02-24T04:54:16.846Z,19.05
2018-02-24T04:56:45.568Z,13.32
2018-02-24T04:59:13.901Z,20.98
2018-02-24T05:01:43.356Z,22.70
2018-02-24T05:04:12.022Z,22.85
2018-02-24T05:06:40.677Z,20.88
2018-02-24T05:09:09.414Z,22.98
2018-02-24T05:11:38.082Z,20.88
2018-02-24T05:14:07.395Z,22.48
2018-02-24T05:16:36.057Z,22.62
2018-02-24T05:19:04.747Z,20.02
2018-02-24T05:21:33.405Z,22.45
2018-02-24T05:24:02.082Z,22.20
2018-02-24T05:26:31.556Z,21.77
2018-02-24T05:29:00.264Z,21.98
2018-02-24T05:31:29.706Z,21.67
2018-02-24T05:33:58.366Z,21.83
2018-02-24T05:36:27.029Z,19.08
2018-02-24T05:38:56.458Z,23.08
2018-02-24T05:41:25.122Z,21.73
2018-02-24T05:43:54.571Z,23.38
2018-02-24T05:46:23.262Z,20.88
2018-02-24T05:48:51.928Z,21.95
2018-02-24T05:51:20.595Z,16.62
2018-02-24T05:53:49.285Z,20.70
2018-02-24T05:56:17.955Z,20.08
2018-02-24T05:58:46.678Z,20.52
2018-02-24T06:01:15.354Z,12.25
2018-02-24T06:03:44.048Z,20.48
2018-02-24T06:06:12.713Z,13.40
2018-02-24T06:08:41.422Z,12.82
2018-02-24T06:11:10.106Z,21.10
2018-02-24T06:13:38.767Z,22.25
2018-02-24T06:16:07.902Z,10.50
2018-02-24T06:18:37.850Z,17.50
2018-02-24T06:21:07.863Z,19.48
2018-02-24T06:23:37.831Z,22.48
2018-02-24T06:26:06.720Z,21.62
2018-02-24T06:28:35.067Z,21.05
2018-02-24T06:31:03.732Z,22.10
2018-02-24T06:33:33.174Z,21.25
2018-02-24T06:36:01.830Z,17.08
2018-02-24T06:38:30.491Z,21.45
2018-02-24T06:40:58.967Z,7.57
2018-02-24T06:43:27.444Z,20.50
2018-02-24T06:45:56.124Z,19.05
2018-02-24T06:48:24.791Z,20.58
2018-02-24T06:50:53.471Z,19.42
2018-02-24T06:53:22.130Z,18.12
2018-02-24T06:55:50.806Z,21.73
2018-02-24T06:58:19.475Z,19.25
2018-02-24T07:00:48.910Z,21.48
2018-02-24T07:03:17.793Z,17.25
2018-02-24T07:05:46.442Z,20.33
2018-02-24T07:08:15.863Z,19.48
2018-02-24T07:10:45.300Z,22.25
2018-02-24T07:13:14.006Z,21.83
2018-02-24T07:15:42.651Z,31.90
2018-02-24T07:18:11.330Z,21.58
2018-02-24T07:20:40.001Z,11.75
2018-02-24T07:23:09.436Z,16.45
2018-02-24T07:25:38.103Z,14.55
2018-02-24T07:28:07.466Z,20.77
2018-02-24T07:30:36.147Z,11.27
2018-02-24T07:33:04.806Z,6.53
2018-02-24T07:35:36.799Z,15.35
2018-02-24T07:38:05.511Z,19.77
2018-02-24T07:40:37.362Z,15.63
2018-02-24T07:43:07.471Z,10.27
2018-02-24T07:45:36.968Z,18.42
2018-02-24T07:48:05.649Z,19.08
2018-02-24T07:50:34.314Z,16.65
2018-02-24T07:53:03.008Z,14.65
2018-02-24T07:55:31.671Z,18.58
2018-02-24T07:58:00.330Z,17.30
2018-02-24T08:00:29.032Z,21.45
2018-02-24T08:02:57.684Z,19.87
2018-02-24T08:05:26.364Z,19.33
2018-02-24T08:07:55.785Z,18.50
2018-02-24T08:10:24.518Z,19.05
2018-02-24T08:12:53.187Z,18.85
2018-02-24T08:15:21.906Z,19.58
2018-02-24T08:17:51.354Z,18.90
2018-02-24T08:20:20.023Z,17.77
2018-02-24T08:22:48.709Z,19.10
2018-02-24T08:25:17.755Z,18.83
2018-02-24T08:27:47.235Z,17.65
2018-02-24T08:30:15.659Z,14.20
2018-02-24T08:32:44.233Z,18.97
2018-02-24T08:35:12.670Z,16.93
2018-02-24T08:37:41.350Z,19.05
2018-02-24T08:40:09.763Z,18.37
2018-02-24T08:42:38.939Z,16.53
2018-02-24T08:45:07.341Z,16.83
2018-02-24T08:47:36.007Z,17.73
2018-02-24T08:50:04.767Z,18.75
2018-02-24T08:52:33.191Z,18.23
2018-02-24T08:55:02.349Z,24.03
2018-02-24T08:57:30.752Z,18.50
2018-02-24T08:59:59.927Z,20.00
2018-02-24T09:02:28.308Z,34.53
2018-02-24T09:04:56.719Z,17.47
2018-02-24T09:07:25.105Z,20.10
2018-02-24T09:09:54.552Z,19.92
2018-02-24T09:12:22.958Z,22.53
2018-02-24T09:14:51.389Z,19.60
2018-02-24T09:17:19.794Z,20.33
2018-02-24T09:19:48.181Z,20.93
2018-02-24T09:22:16.582Z,20.27
2018-02-24T09:24:45.743Z,22.00
2018-02-24T09:27:14.138Z,19.03
2018-02-24T09:29:42.529Z,19.40
2018-02-24T09:32:11.668Z,18.80
2018-02-24T09:34:40.089Z,15.97
2018-02-24T09:37:09.082Z,17.52
2018-02-24T09:39:37.964Z,18.50
2018-02-24T09:42:06.622Z,18.37
2018-02-24T09:44:35.037Z,18.53
2018-02-24T09:47:04.189Z,18.97
2018-02-24T09:49:32.598Z,60.27
2018-02-24T09:52:00.982Z,37.10
2018-02-24T09:54:30.205Z,28.30
2018-02-24T09:56:58.589Z,25.20
2018-02-24T09:59:26.975Z,26.73
2018-02-24T10:01:55.637Z,22.70
2018-02-24T10:04:24.099Z,20.57
2018-02-24T10:06:52.676Z,23.80
2018-02-24T10:09:21.062Z,25.40
2018-02-24T10:11:50.250Z,21.17
2018-02-24T10:14:18.637Z,40.67
2018-02-24T10:16:47.787Z,23.80
2018-02-24T10:19:16.196Z,6.83
2018-02-24T10:21:44.572Z,14.37
2018-02-24T10:24:13.031Z,18.63
2018-02-24T10:26:41.427Z,15.10
2018-02-24T10:29:09.809Z,16.90
2018-02-24T10:31:38.269Z,15.77
2018-02-24T10:34:08.195Z,9.63
2018-02-24T10:36:36.676Z,17.23
2018-02-24T10:39:04.407Z,15.80
2018-02-24T10:41:32.826Z,18.17
2018-02-24T10:44:01.211Z,17.00
2018-02-24T10:46:30.365Z,15.70
2018-02-24T10:49:10.014Z,18.97
2018-02-24T10:51:39.960Z,17.50
2018-02-24T10:54:09.910Z,18.50
2018-02-24T10:56:38.296Z,17.07
2018-02-24T10:59:06.766Z,18.17
2018-02-24T11:01:35.141Z,19.73
2018-02-24T11:04:03.533Z,15.50
2018-02-24T11:06:31.941Z,16.93
2018-02-24T11:09:00.341Z,13.13
2018-02-24T11:11:29.510Z,11.43
2018-02-24T11:13:57.948Z,14.50
2018-02-24T11:16:26.341Z,10.50
2018-02-24T11:18:54.747Z,13.17
2018-02-24T11:21:23.160Z,11.60
2018-02-24T11:23:52.327Z,14.07
2018-02-24T11:26:20.719Z,13.00
2018-02-24T11:28:49.894Z,14.70
2018-02-24T11:31:18.311Z,15.33
2018-02-24T11:33:46.905Z,13.00
2018-02-24T11:36:15.288Z,13.90
2018-02-24T11:38:44.283Z,12.17
2018-02-24T11:41:12.677Z,12.47
2018-02-24T11:43:40.885Z,13.83
2018-02-24T11:46:10.289Z,15.60
2018-02-24T11:48:39.414Z,15.37
2018-02-24T11:51:07.812Z,15.17
2018-02-24T11:53:36.199Z,14.63
2018-02-24T11:56:05.366Z,12.00
2018-02-24T11:58:33.766Z,15.07
2018-02-24T12:01:02.142Z,14.33
2018-02-24T12:03:30.556Z,13.17
2018-02-24T12:05:59.148Z,14.20
2018-02-24T12:08:27.516Z,14.90
2018-02-24T12:10:55.910Z,13.43
2018-02-24T12:13:25.063Z,13.80
2018-02-24T12:15:53.465Z,13.13
2018-02-24T12:18:21.847Z,12.03
2018-02-24T12:20:50.225Z,12.13
2018-02-24T12:23:18.626Z,11.53
2018-02-24T12:25:47.786Z,12.03
2018-02-24T12:28:16.177Z,12.50
2018-02-24T12:30:44.795Z,11.80
2018-02-24T12:33:13.867Z,9.83
2018-02-24T12:35:42.259Z,11.17
2018-02-24T12:38:10.646Z,12.63
2018-02-24T12:40:39.041Z,10.97
2018-02-24T12:43:07.430Z,10.80
2018-02-24T12:45:35.841Z,11.10
2018-02-24T12:48:04.225Z,10.60
2018-02-24T12:50:33.396Z,9.60
2018-02-24T12:53:01.786Z,10.37
2018-02-24T12:55:30.196Z,9.87
2018-02-24T12:57:58.578Z,7.97
2018-02-24T13:00:26.790Z,10.30
2018-02-24T13:02:55.164Z,9.33
2018-02-24T13:05:24.348Z,9.90
2018-02-24T13:07:52.717Z,9.63
2018-02-24T13:10:21.090Z,8.10
2018-02-24T13:12:49.489Z,9.90
2018-02-24T13:15:17.863Z,9.20
2018-02-24T13:17:47.003Z,9.80
2018-02-24T13:20:16.168Z,7.90
2018-02-24T13:22:44.349Z,9.47
2018-02-24T13:25:14.491Z,9.87
2018-02-24T13:27:44.217Z,8.13
2018-02-24T13:30:12.614Z,8.23
2018-02-24T13:32:41.895Z,8.87
2018-02-24T13:35:10.287Z,9.03
2018-02-24T13:37:38.478Z,9.10
2018-02-24T13:40:06.894Z,9.13
2018-02-24T13:42:35.268Z,9.07
2018-02-24T13:45:03.338Z,8.17
2018-02-24T13:47:31.534Z,8.50
2018-02-24T13:50:00.680Z,9.67
2018-02-24T13:52:29.146Z,9.70
2018-02-24T13:54:57.522Z,9.73
2018-02-24T13:57:25.923Z,5.83
2018-02-24T13:59:54.300Z,8.17
2018-02-24T14:02:22.717Z,8.80
2018-02-24T14:04:51.852Z,8.50
2018-02-24T14:07:20.213Z,8.70
2018-02-24T14:09:48.606Z,9.13
2018-02-24T14:12:17.041Z,9.53
2018-02-24T14:14:46.214Z,8.37
2018-02-24T14:17:14.598Z,7.63
2018-02-24T14:19:43.021Z,7.97
2018-02-24T14:22:11.426Z,7.10
2018-02-24T14:24:39.792Z,8.03
2018-02-24T14:27:08.201Z,7.30
2018-02-24T14:29:36.586Z,9.40
2018-02-24T14:32:05.741Z,8.57
2018-02-24T14:34:34.133Z,7.57
2018-02-24T14:37:02.402Z,6.87
2018-02-24T14:39:30.778Z,6.77
2018-02-24T14:41:59.157Z,7.17
2018-02-24T14:44:27.589Z,6.03
2018-02-24T14:46:56.726Z,3.57
2018-02-24T14:49:25.118Z,3.63
2018-02-24T14:51:53.481Z,3.23
2018-02-24T14:54:22.620Z,5.23
2018-02-24T14:56:51.759Z,5.63
2018-02-24T14:59:19.962Z,5.73
2018-02-24T15:01:48.345Z,6.23
2018-02-24T15:04:16.807Z,6.67
2018-02-24T15:06:45.931Z,6.03
2018-02-24T15:09:14.954Z,6.20
2018-02-24T15:11:43.552Z,6.83
2018-02-24T15:14:11.923Z,4.67
2018-02-24T15:16:40.294Z,5.37
2018-02-24T15:19:08.695Z,6.73
2018-02-24T15:21:36.898Z,7.07
2018-02-24T15:24:05.274Z,8.17
2018-02-24T15:26:33.671Z,6.20
2018-02-24T15:29:02.616Z,6.10
2018-02-24T15:31:31.010Z,6.23
2018-02-24T15:33:59.401Z,6.77
2018-02-24T15:36:27.606Z,6.67
2018-02-24T15:38:56.167Z,5.90
2018-02-24T15:41:25.215Z,7.10
2018-02-24T15:43:53.293Z,5.43
2018-02-24T15:46:21.698Z,5.83
2018-02-24T15:48:50.082Z,6.93
2018-02-24T15:51:19.225Z,5.57
2018-02-24T15:53:47.621Z,8.30
2018-02-24T15:56:16.047Z,6.17
2018-02-24T15:58:45.221Z,8.00
2018-02-24T16:01:13.598Z,7.53
2018-02-24T16:03:41.982Z,8.00
2018-02-24T16:06:11.163Z,7.87
2018-02-24T16:08:39.546Z,8.17
2018-02-24T16:11:07.941Z,9.40
2018-02-24T16:13:37.115Z,6.60
2018-02-24T16:16:05.518Z,8.57
2018-02-24T16:18:34.690Z,10.07
2018-02-24T16:21:03.086Z,8.70
2018-02-24T16:23:32.258Z,7.20
2018-02-24T16:26:00.643Z,8.47
2018-02-24T16:28:28.851Z,9.50
2018-02-24T16:30:57.243Z,14.83
2018-02-24T16:33:25.646Z,19.27
2018-02-24T16:35:54.041Z,8.80
2018-02-24T16:38:22.474Z,9.50
2018-02-24T16:40:51.032Z,9.93
2018-02-24T16:43:20.196Z,12.20
2018-02-24T16:45:48.584Z,9.30
2018-02-24T16:48:16.983Z,9.17
2018-02-24T16:50:46.898Z,7.80
2018-02-24T16:53:16.919Z,8.17
2018-02-24T16:55:45.301Z,8.03
2018-02-24T16:58:13.699Z,7.97
2018-02-24T17:00:42.086Z,7.97
2018-02-24T17:03:10.494Z,7.97
2018-02-24T17:05:38.878Z,8.07
2018-02-24T17:08:07.270Z,7.07
2018-02-24T17:10:36.072Z,10.00
2018-02-24T17:13:04.465Z,8.93
2018-02-24T17:15:32.902Z,8.40
2018-02-24T17:18:01.300Z,9.33
2018-02-24T17:20:30.459Z,22.20
2018-02-24T17:22:58.876Z,26.83
2018-02-24T17:25:27.257Z,20.97
2018-02-24T17:27:55.654Z,18.47
2018-02-24T17:30:24.035Z,12.83
2018-02-24T17:32:52.454Z,12.43
2018-02-24T17:35:20.834Z,12.27
2018-02-24T17:37:49.032Z,13.47
2018-02-24T17:40:19.167Z,7.93
2018-02-24T17:42:47.367Z,8.20
2018-02-24T17:45:16.143Z,7.67
2018-02-24T17:47:45.457Z,7.70
2018-02-24T17:50:13.896Z,11.50
2018-02-24T17:52:42.285Z,9.07
2018-02-24T17:55:10.675Z,7.70
2018-02-24T17:57:39.082Z,7.83
2018-02-24T18:00:07.483Z,28.23
2018-02-24T18:02:36.651Z,11.27
2018-02-24T18:05:05.052Z,9.90
2018-02-24T18:07:33.450Z,8.93
2018-02-24T18:10:02.632Z,9.23
2018-02-24T18:12:31.792Z,8.50
2018-02-24T18:15:00.194Z,13.17
2018-02-24T18:17:28.581Z,12.30
2018-02-24T18:19:57.744Z,10.77
2018-02-24T18:22:26.909Z,9.50
2018-02-24T18:24:55.314Z,8.13
2018-02-24T18:27:23.689Z,9.03
2018-02-24T18:29:52.090Z,7.93
2018-02-24T18:32:20.471Z,13.20
2018-02-24T18:34:48.863Z,13.73
2018-02-24T18:37:18.021Z,12.03
2018-02-24T18:39:46.412Z,8.63
2018-02-24T18:42:14.812Z,8.17
2018-02-24T18:44:43.970Z,8.00
2018-02-24T18:47:12.180Z,7.37
2018-02-24T18:49:41.397Z,6.40
2018-02-24T18:52:09.785Z,8.73
2018-02-24T18:54:38.199Z,7.60
2018-02-24T18:57:06.620Z,7.37
2018-02-24T18:59:35.776Z,6.97
2018-02-24T19:02:04.168Z,5.80
2018-02-24T19:04:32.574Z,6.20
2018-02-24T19:07:00.949Z,6.20
2018-02-24T19:09:30.109Z,6.10
2018-02-24T19:11:58.505Z,3.30
2018-02-24T19:14:27.447Z,5.87
2018-02-24T19:16:55.970Z,5.80
2018-02-24T19:19:24.369Z,5.20
2018-02-24T19:21:53.522Z,6.27
2018-02-24T19:24:21.924Z,5.70
2018-02-24T19:26:50.371Z,6.07
2018-02-24T19:29:19.348Z,5.73
2018-02-24T19:31:47.720Z,5.60
2018-02-24T19:34:16.132Z,2.60
2018-02-24T19:36:44.535Z,5.53
2018-02-24T19:39:13.686Z,6.20
2018-02-24T19:41:42.084Z,4.67
2018-02-24T19:44:10.492Z,6.00
2018-02-24T19:46:39.664Z,5.90
2018-02-24T19:49:08.061Z,5.90
2018-02-24T19:51:37.232Z,5.87
2018-02-24T19:54:05.662Z,5.50
2018-02-24T19:56:34.076Z,5.60
2018-02-24T19:59:02.451Z,5.27
2018-02-24T20:01:30.920Z,6.47
2018-02-24T20:03:59.744Z,5.63
2018-02-24T20:06:28.092Z,6.27
2018-02-24T20:08:56.464Z,5.93
2018-02-24T20:11:24.846Z,6.30
2018-02-24T20:13:53.247Z,5.80
2018-02-24T20:16:21.729Z,6.13
2018-02-24T20:18:50.135Z,5.80
2018-02-24T20:21:18.515Z,6.17
2018-02-24T20:23:47.722Z,5.97
2018-02-24T20:26:16.559Z,6.17
2018-02-24T20:28:45.355Z,5.83
2018-02-24T20:31:13.776Z,6.67
2018-02-24T20:33:42.173Z,6.17
2018-02-24T20:36:10.577Z,5.30
2018-02-24T20:38:38.990Z,6.67
2018-02-24T20:41:07.376Z,6.57
2018-02-24T20:43:35.759Z,6.00
2018-02-24T20:46:03.966Z,6.43
2018-02-24T20:48:32.356Z,5.53
2018-02-24T20:51:00.752Z,6.57
2018-02-24T20:53:29.135Z,6.30
2018-02-24T20:55:58.110Z,6.40
2018-02-24T20:58:27.687Z,6.78
2018-02-24T21:00:57.043Z,6.00
2018-02-24T21:03:27.059Z,6.77
2018-02-24T21:05:57.309Z,6.60
2018-02-24T21:08:26.486Z,6.50
2018-02-24T21:10:54.897Z,6.53
2018-02-24T21:13:23.342Z,6.47
2018-02-24T21:15:51.738Z,5.70
2018-02-24T21:18:20.122Z,5.97
2018-02-24T21:20:48.506Z,6.17
2018-02-24T21:23:17.104Z,5.50
2018-02-24T21:25:45.530Z,5.33
2018-02-24T21:28:13.940Z,5.63
2018-02-24T21:30:42.403Z,5.83
2018-02-24T21:33:10.855Z,6.10
2018-02-24T21:35:39.823Z,6.17
2018-02-24T21:38:08.209Z,5.80
2018-02-24T21:40:37.410Z,6.13
2018-02-24T21:43:06.548Z,6.10
2018-02-24T21:45:34.967Z,5.60
2018-02-24T21:48:03.393Z,5.63
2018-02-24T21:50:32.235Z,5.80
2018-02-24T21:53:00.642Z,5.50
2018-02-24T21:55:29.306Z,5.85
2018-02-24T21:57:57.526Z,6.40
2018-02-24T22:00:26.948Z,6.10
2018-02-24T22:02:55.326Z,5.43
2018-02-24T22:05:23.820Z,5.30
2018-02-24T22:07:52.493Z,5.68
2018-02-24T22:10:21.233Z,5.78
2018-02-24T22:12:49.909Z,5.87
2018-02-24T22:15:18.678Z,5.43
2018-02-24T22:17:47.015Z,6.05
2018-02-24T22:20:15.732Z,6.32
2018-02-24T22:22:44.399Z,6.15
2018-02-24T22:25:12.896Z,6.00
2018-02-24T22:27:41.398Z,6.30
2018-02-24T22:30:10.058Z,6.28
2018-02-24T22:32:38.738Z,4.70
2018-02-24T22:35:07.423Z,5.87
2018-02-24T22:37:35.897Z,6.05
2018-02-24T22:40:04.276Z,6.35
2018-02-24T22:42:32.968Z,6.10
2018-02-24T22:45:01.634Z,5.28
2018-02-24T22:47:35.850Z,6.28
2018-02-24T22:50:05.032Z,6.72
2018-02-24T22:52:33.724Z,6.40
2018-02-24T22:55:02.382Z,5.93
2018-02-24T22:57:31.791Z,5.35
2018-02-24T23:00:01.247Z,6.07
2018-02-24T23:02:45.688Z,5.93
2018-02-24T23:05:14.392Z,5.62
2018-02-24T23:07:43.050Z,6.00
2018-02-24T23:10:11.712Z,6.22
2018-02-24T23:12:41.452Z,5.80
2018-02-24T23:15:10.106Z,6.60
2018-02-24T23:17:38.757Z,6.30
2018-02-24T23:20:07.423Z,5.32
2018-02-24T23:22:36.083Z,5.40
2018-02-24T23:25:04.772Z,8.90
2018-02-24T23:27:33.438Z,6.53
2018-02-24T23:30:01.912Z,5.70
2018-02-24T23:32:30.582Z,6.25
2018-02-24T23:34:59.252Z,7.32
2018-02-24T23:37:28.669Z,8.82
2018-02-24T23:39:57.154Z,5.87
2018-02-24T23:42:25.803Z,3.72
2018-02-24T23:44:54.470Z,6.82
2018-02-24T23:47:24.566Z,6.80
2018-02-24T23:49:53.227Z,6.12
2018-02-24T23:52:21.903Z,6.37
2018-02-24T23:54:50.574Z,5.90
2018-02-24T23:57:20.022Z,6.45
2018-02-24T23:59:49.463Z,5.07
